createdAt,value
2018-08-28T00:01:05.604Z,13.40
2018-08-28T00:03:34.914Z,13.30
2018-08-28T00:06:04.061Z,13.10
2018-08-28T00:08:32.608Z,13.10
2018-08-28T00:11:01.444Z,13.00
2018-08-28T00:13:30.022Z,12.90
2018-08-28T00:15:58.572Z,12.70
2018-08-28T00:18:27.732Z,12.60
2018-08-28T00:20:56.468Z,12.50
2018-08-28T00:23:24.936Z,12.50
2018-08-28T00:25:53.967Z,12.40
2018-08-28T00:28:22.764Z,12.40
2018-08-28T00:30:52.296Z,12.30
2018-08-28T00:33:20.878Z,12.40
2018-08-28T00:35:50.191Z,12.40
2018-08-28T00:38:18.764Z,12.60
2018-08-28T00:40:47.675Z,12.60
2018-08-28T00:43:16.445Z,12.80
2018-08-28T00:45:44.987Z,12.70
2018-08-28T00:48:13.967Z,12.60
2018-08-28T00:50:42.520Z,12.50
2018-08-28T00:53:11.088Z,12.40
2018-08-28T00:55:39.746Z,12.40
2018-08-28T00:58:08.364Z,12.30
2018-08-28T01:00:37.049Z,12.20
2018-08-28T01:03:05.993Z,12.10
2018-08-28T01:05:34.511Z,12.10
2018-08-28T01:08:03.833Z,12.10
2018-08-28T01:10:32.407Z,12.10
2018-08-28T01:13:01.004Z,12.00
2018-08-28T01:15:29.591Z,11.90
2018-08-28T01:17:58.084Z,11.90
2018-08-28T01:20:26.651Z,11.90
2018-08-28T01:22:56.884Z,11.70
2018-08-28T01:25:25.707Z,11.70
2018-08-28T01:27:54.547Z,11.70
2018-08-28T01:30:29.091Z,11.60
2018-08-28T01:32:57.701Z,11.60
2018-08-28T01:35:26.180Z,11.50
2018-08-28T01:37:55.206Z,11.50
2018-08-28T01:40:23.744Z,11.40
2018-08-28T01:42:52.955Z,11.40
2018-08-28T01:45:22.313Z,11.30
2018-08-28T01:47:51.453Z,11.20
2018-08-28T01:50:19.965Z,11.10
2018-08-28T01:52:48.452Z,11.00
2018-08-28T01:55:17.008Z,11.00
2018-08-28T01:57:45.769Z,11.00
2018-08-28T02:00:14.259Z,10.90
2018-08-28T02:02:42.829Z,10.90
2018-08-28T02:05:11.372Z,11.00
2018-08-28T02:07:39.839Z,11.00
2018-08-28T02:10:08.491Z,10.90
2018-08-28T02:12:37.432Z,10.90
2018-08-28T02:15:06.097Z,10.90
2018-08-28T02:17:34.556Z,10.80
2018-08-28T02:20:03.140Z,10.80
2018-08-28T02:22:32.511Z,10.90
2018-08-28T02:25:00.988Z,10.80
2018-08-28T02:27:29.472Z,10.70
2018-08-28T02:29:58.043Z,10.60
2018-08-28T02:32:26.552Z,10.60
2018-08-28T02:34:55.169Z,10.60
2018-08-28T02:37:23.683Z,10.40
2018-08-28T02:39:52.273Z,10.50
2018-08-28T02:42:21.584Z,10.50
2018-08-28T02:44:50.515Z,10.50
2018-08-28T02:47:19.068Z,10.50
2018-08-28T02:49:47.677Z,10.40
2018-08-28T02:52:16.688Z,10.40
2018-08-28T02:54:45.980Z,10.40
2018-08-28T02:57:15.059Z,10.30
2018-08-28T02:59:43.708Z,10.30
2018-08-28T03:02:12.400Z,10.30
2018-08-28T03:04:41.073Z,10.30
2018-08-28T03:07:09.571Z,10.20
2018-08-28T03:09:38.080Z,10.10
2018-08-28T03:12:06.665Z,10.00
2018-08-28T03:14:35.276Z,9.90
2018-08-28T03:17:04.745Z,9.80
2018-08-28T03:19:33.407Z,9.70
2018-08-28T03:22:02.005Z,9.70
2018-08-28T03:24:30.609Z,9.70
2018-08-28T03:26:59.165Z,9.70
2018-08-28T03:29:28.003Z,9.80
2018-08-28T03:31:57.251Z,9.80
2018-08-28T03:34:26.682Z,9.80
2018-08-28T03:36:55.668Z,9.80
2018-08-28T03:39:25.084Z,9.80
2018-08-28T03:41:54.408Z,9.80
2018-08-28T03:44:23.683Z,9.70
2018-08-28T03:46:52.179Z,9.70
2018-08-28T03:49:20.808Z,9.60
2018-08-28T03:51:49.998Z,9.60
2018-08-28T03:54:19.315Z,9.60
2018-08-28T03:56:47.812Z,9.60
2018-08-28T03:59:16.356Z,9.60
2018-08-28T04:01:45.129Z,9.50
2018-08-28T04:04:13.788Z,9.40
2018-08-28T04:06:42.645Z,9.40
2018-08-28T04:09:11.611Z,9.40
2018-08-28T04:11:40.481Z,9.40
2018-08-28T04:14:09.180Z,9.40
2018-08-28T04:16:37.855Z,9.30
2018-08-28T04:19:06.764Z,9.30
2018-08-28T04:21:35.513Z,9.40
2018-08-28T04:24:04.095Z,9.30
2018-08-28T04:26:32.623Z,9.20
2018-08-28T04:29:01.296Z,9.20
2018-08-28T04:31:29.793Z,9.20
2018-08-28T04:33:58.963Z,9.10
2018-08-28T04:36:28.175Z,9.10
2018-08-28T04:38:59.397Z,9.20
2018-08-28T04:41:28.687Z,9.20
2018-08-28T04:43:57.998Z,9.20
2018-08-28T04:46:27.109Z,9.30
2018-08-28T04:48:56.381Z,9.40
2018-08-28T04:51:25.282Z,9.40
2018-08-28T04:53:55.519Z,9.50
2018-08-28T04:56:24.107Z,9.60
2018-08-28T04:58:52.881Z,9.70
2018-08-28T05:01:21.487Z,9.80
2018-08-28T05:03:50.793Z,9.80
2018-08-28T05:06:19.538Z,10.00
2018-08-28T05:08:48.315Z,10.20
2018-08-28T05:11:17.348Z,10.20
2018-08-28T05:13:45.900Z,10.50
2018-08-28T05:16:14.572Z,10.50
2018-08-28T05:18:43.142Z,10.60
2018-08-28T05:21:11.770Z,10.60
2018-08-28T05:23:40.644Z,10.70
2018-08-28T05:26:09.996Z,10.70
2018-08-28T05:28:39.110Z,10.80
2018-08-28T05:31:07.665Z,10.90
2018-08-28T05:33:36.335Z,11.00
2018-08-28T05:36:05.394Z,11.00
2018-08-28T05:38:34.100Z,11.20
2018-08-28T05:41:02.689Z,11.30
2018-08-28T05:43:31.413Z,11.30
2018-08-28T05:46:00.095Z,11.30
2018-08-28T05:48:28.904Z,11.40
2018-08-28T05:50:57.412Z,11.50
2018-08-28T05:53:26.040Z,11.70
2018-08-28T05:55:54.560Z,11.70
2018-08-28T05:58:23.820Z,11.70
2018-08-28T06:00:53.219Z,12.00
2018-08-28T06:03:22.558Z,12.20
2018-08-28T06:05:51.800Z,12.40
2018-08-28T06:08:20.356Z,12.30
2018-08-28T06:10:48.986Z,12.20
2018-08-28T06:13:17.536Z,12.20
2018-08-28T06:15:46.249Z,12.40
2018-08-28T06:18:15.032Z,12.40
2018-08-28T06:20:43.879Z,12.50
2018-08-28T06:23:13.461Z,12.60
2018-08-28T06:25:42.274Z,12.70
2018-08-28T06:28:10.827Z,12.70
2018-08-28T06:30:39.861Z,12.90
2018-08-28T06:33:08.402Z,12.90
2018-08-28T06:35:37.193Z,13.10
2018-08-28T06:38:05.824Z,13.10
2018-08-28T06:40:34.352Z,13.10
2018-08-28T06:43:07.440Z,13.20
2018-08-28T06:45:36.728Z,13.30
2018-08-28T06:48:06.510Z,13.20
2018-08-28T06:50:35.248Z,13.20
2018-08-28T06:53:03.842Z,13.10
2018-08-28T06:55:32.323Z,13.30
2018-08-28T06:58:00.945Z,13.40
2018-08-28T07:00:29.473Z,13.60
2018-08-28T07:02:58.753Z,13.80
2018-08-28T07:05:28.224Z,13.90
2018-08-28T07:07:56.805Z,14.00
2018-08-28T07:10:26.493Z,14.10
2018-08-28T07:12:55.036Z,14.10
2018-08-28T07:15:23.804Z,14.00
2018-08-28T07:17:53.113Z,14.20
2018-08-28T07:20:22.438Z,14.30
2018-08-28T07:22:51.192Z,14.30
2018-08-28T07:25:19.851Z,14.40
2018-08-28T07:27:49.088Z,14.40
2018-08-28T07:30:17.800Z,14.50
2018-08-28T07:32:46.468Z,14.60
2018-08-28T07:35:14.982Z,14.80
2018-08-28T07:37:43.919Z,14.90
2018-08-28T07:40:13.231Z,15.10
2018-08-28T07:42:41.849Z,15.30
2018-08-28T07:45:10.636Z,15.40
2018-08-28T07:47:39.116Z,15.50
2018-08-28T07:50:07.735Z,15.70
2018-08-28T07:52:36.487Z,15.80
2018-08-28T07:55:05.771Z,16.00
2018-08-28T07:57:34.993Z,16.10
2018-08-28T08:00:03.609Z,16.30
2018-08-28T08:02:32.252Z,16.30
2018-08-28T08:05:01.121Z,16.40
2018-08-28T08:07:30.717Z,16.60
2018-08-28T08:09:59.309Z,16.80
2018-08-28T08:12:28.207Z,17.00
2018-08-28T08:14:56.760Z,17.20
2018-08-28T08:17:25.684Z,17.30
2018-08-28T08:19:54.528Z,17.50
2018-08-28T08:22:23.090Z,17.70
2018-08-28T08:24:52.464Z,17.80
2018-08-28T08:27:21.900Z,17.90
2018-08-28T08:29:50.749Z,18.10
2018-08-28T08:32:19.352Z,18.20
2018-08-28T08:34:47.992Z,18.30
2018-08-28T08:37:16.563Z,18.40
2018-08-28T08:39:45.979Z,18.50
2018-08-28T08:42:14.598Z,18.70
2018-08-28T08:44:43.068Z,18.70
2018-08-28T08:47:11.700Z,18.60
2018-08-28T08:49:40.293Z,18.70
2018-08-28T08:52:08.938Z,18.80
2018-08-28T08:54:37.440Z,19.10
2018-08-28T08:57:05.987Z,19.20
2018-08-28T08:59:34.484Z,19.40
2018-08-28T09:02:03.835Z,19.40
2018-08-28T09:04:32.490Z,19.40
2018-08-28T09:07:01.203Z,19.50
2018-08-28T09:09:30.067Z,19.50
2018-08-28T09:11:58.703Z,19.60
2018-08-28T09:14:27.461Z,19.70
2018-08-28T09:16:56.623Z,19.90
2018-08-28T09:19:25.249Z,20.00
2018-08-28T09:21:53.929Z,19.90
2018-08-28T09:24:22.995Z,20.00
2018-08-28T09:26:52.373Z,20.20
2018-08-28T09:29:21.020Z,20.20
2018-08-28T09:31:49.820Z,20.10
2018-08-28T09:34:18.940Z,20.30
2018-08-28T09:36:47.780Z,20.30
2018-08-28T09:39:16.468Z,20.40
2018-08-28T09:41:45.224Z,20.40
2018-08-28T09:44:14.028Z,20.50
2018-08-28T09:46:42.987Z,20.70
2018-08-28T09:49:11.581Z,20.90
2018-08-28T09:51:40.353Z,21.00
2018-08-28T09:54:09.666Z,21.20
2018-08-28T09:56:38.646Z,21.30
2018-08-28T09:59:07.185Z,21.40
2018-08-28T10:01:41.185Z,21.30
2018-08-28T10:04:10.357Z,21.50
2018-08-28T10:06:39.445Z,21.60
2018-08-28T10:09:13.824Z,21.60
2018-08-28T10:11:42.472Z,21.70
2018-08-28T10:14:11.863Z,21.80
2018-08-28T10:16:40.868Z,22.00
2018-08-28T10:19:09.714Z,22.10
2018-08-28T10:21:39.031Z,22.30
2018-08-28T10:24:07.828Z,22.40
2018-08-28T10:26:36.505Z,22.60
2018-08-28T10:29:05.708Z,22.70
2018-08-28T10:31:34.841Z,22.70
2018-08-28T10:34:03.433Z,22.80
2018-08-28T10:36:32.218Z,23.00
2018-08-28T10:39:01.537Z,23.10
2018-08-28T10:41:30.900Z,23.30
2018-08-28T10:44:00.342Z,23.30
2018-08-28T10:46:29.094Z,23.40
2018-08-28T10:48:58.560Z,23.40
2018-08-28T10:51:27.388Z,23.60
2018-08-28T10:53:55.859Z,24.10
2018-08-28T10:56:24.428Z,24.30
2018-08-28T10:58:53.245Z,24.40
2018-08-28T11:01:21.870Z,24.70
2018-08-28T11:03:50.509Z,25.00
2018-08-28T11:06:18.972Z,25.30
2018-08-28T11:08:48.371Z,25.50
2018-08-28T11:11:17.597Z,25.20
2018-08-28T11:13:46.392Z,24.90
2018-08-28T11:16:15.068Z,24.90
2018-08-28T11:18:43.523Z,24.90
2018-08-28T11:21:12.109Z,25.00
2018-08-28T11:23:40.685Z,25.10
2018-08-28T11:26:09.259Z,25.40
2018-08-28T11:28:37.873Z,25.40
2018-08-28T11:31:07.616Z,25.30
2018-08-28T11:33:36.785Z,25.30
2018-08-28T11:36:05.867Z,25.70
2018-08-28T11:38:34.823Z,25.90
2018-08-28T11:41:03.383Z,25.80
2018-08-28T11:43:31.915Z,25.90
2018-08-28T11:46:00.794Z,25.90
2018-08-28T11:48:29.386Z,26.20
2018-08-28T11:50:58.320Z,26.30
2018-08-28T11:53:26.896Z,26.50
2018-08-28T11:55:55.676Z,26.60
2018-08-28T11:58:24.567Z,26.40
2018-08-28T12:00:53.144Z,26.40
2018-08-28T12:03:22.561Z,26.50
2018-08-28T12:05:51.316Z,26.90
2018-08-28T12:08:19.908Z,27.20
2018-08-28T12:10:48.724Z,27.30
2018-08-28T12:13:17.365Z,27.20
2018-08-28T12:15:45.923Z,27.30
2018-08-28T12:18:14.693Z,27.40
2018-08-28T12:20:44.057Z,27.20
2018-08-28T12:23:12.686Z,27.20
2018-08-28T12:25:41.566Z,27.30
2018-08-28T12:28:10.884Z,27.10
2018-08-28T12:30:39.851Z,27.40
2018-08-28T12:33:08.532Z,27.50
2018-08-28T12:35:37.186Z,27.30
2018-08-28T12:38:06.668Z,27.10
2018-08-28T12:40:36.109Z,27.10
2018-08-28T12:43:04.851Z,27.30
2018-08-28T12:45:33.488Z,27.30
2018-08-28T12:48:02.652Z,27.50
2018-08-28T12:50:32.079Z,27.40
2018-08-28T12:53:00.847Z,27.60
2018-08-28T12:55:29.457Z,27.60
2018-08-28T12:57:58.083Z,27.70
2018-08-28T13:00:26.625Z,27.80
2018-08-28T13:02:55.987Z,27.90
2018-08-28T13:05:25.342Z,27.50
2018-08-28T13:07:54.101Z,27.40
2018-08-28T13:10:22.703Z,27.60
2018-08-28T13:12:51.541Z,27.90
2018-08-28T13:15:20.189Z,27.70
2018-08-28T13:17:48.950Z,27.70
2018-08-28T13:20:17.647Z,27.30
2018-08-28T13:22:47.089Z,27.10
2018-08-28T13:25:16.029Z,27.10
2018-08-28T13:27:44.613Z,27.30
2018-08-28T13:30:13.488Z,27.40
2018-08-28T13:32:42.091Z,27.60
2018-08-28T13:35:10.933Z,27.60
2018-08-28T13:37:39.538Z,27.60
2018-08-28T13:40:09.600Z,27.60
2018-08-28T13:42:42.423Z,27.80
2018-08-28T13:45:11.737Z,27.90
2018-08-28T13:47:41.247Z,27.60
2018-08-28T13:50:10.233Z,27.50
2018-08-28T13:52:39.129Z,27.10
2018-08-28T13:55:07.898Z,27.10
2018-08-28T13:57:37.264Z,27.10
2018-08-28T14:00:06.328Z,26.90
2018-08-28T14:02:34.873Z,27.00
2018-08-28T14:05:04.352Z,27.20
2018-08-28T14:07:33.057Z,27.20
2018-08-28T14:10:02.080Z,27.30
2018-08-28T14:12:30.853Z,27.40
2018-08-28T14:15:00.714Z,27.60
2018-08-28T14:17:29.106Z,27.60
2018-08-28T14:19:57.640Z,27.60
2018-08-28T14:22:27.124Z,27.70
2018-08-28T14:24:56.000Z,27.80
2018-08-28T14:27:24.717Z,27.80
2018-08-28T14:29:53.538Z,27.80
2018-08-28T14:32:22.212Z,28.10
2018-08-28T14:34:51.042Z,28.30
2018-08-28T14:37:19.708Z,28.50
2018-08-28T14:39:48.833Z,28.60
2018-08-28T14:42:18.147Z,28.80
2018-08-28T14:44:47.159Z,29.00
2018-08-28T14:47:16.141Z,29.10
2018-08-28T14:49:44.865Z,29.00
2018-08-28T14:52:13.543Z,29.30
2018-08-28T14:54:42.331Z,29.10
2018-08-28T14:57:11.358Z,29.10
2018-08-28T14:59:40.751Z,29.60
2018-08-28T15:02:09.940Z,29.90
2018-08-28T15:04:38.718Z,30.00
2018-08-28T15:07:07.420Z,30.40
2018-08-28T15:09:36.228Z,30.70
2018-08-28T15:12:04.859Z,31.20
2018-08-28T15:14:33.381Z,31.70
2018-08-28T15:17:01.924Z,32.20
2018-08-28T15:19:30.461Z,32.40
2018-08-28T15:21:59.096Z,32.20
2018-08-28T15:24:27.806Z,31.80
2018-08-28T15:26:56.504Z,31.90
2018-08-28T15:29:25.319Z,32.50
2018-08-28T15:31:54.676Z,32.90
2018-08-28T15:34:24.191Z,33.30
2018-08-28T15:36:52.868Z,33.50
2018-08-28T15:39:21.607Z,33.70
2018-08-28T15:41:50.336Z,33.80
2018-08-28T15:44:19.881Z,33.20
2018-08-28T15:46:49.035Z,33.40
2018-08-28T15:49:18.276Z,33.60
2018-08-28T15:51:46.874Z,33.80
2018-08-28T15:54:15.879Z,33.40
2018-08-28T15:56:44.554Z,33.50
2018-08-28T15:59:13.300Z,34.10
2018-08-28T16:01:42.588Z,33.50
2018-08-28T16:04:15.654Z,33.20
2018-08-28T16:06:44.320Z,33.70
2018-08-28T16:09:13.071Z,34.00
2018-08-28T16:11:41.781Z,33.90
2018-08-28T16:14:10.628Z,34.30
2018-08-28T16:16:39.614Z,34.10
2018-08-28T16:19:08.216Z,34.70
2018-08-28T16:21:39.650Z,34.40
2018-08-28T16:24:08.942Z,34.30
2018-08-28T16:26:38.621Z,33.90
2018-08-28T16:29:07.442Z,34.00
2018-08-28T16:31:36.506Z,34.30
2018-08-28T16:34:06.399Z,34.20
2018-08-28T16:36:34.933Z,34.10
2018-08-28T16:39:05.883Z,34.10
2018-08-28T16:41:34.722Z,33.70
2018-08-28T16:44:04.223Z,34.00
2018-08-28T16:46:32.747Z,34.00
2018-08-28T16:49:02.100Z,33.40
2018-08-28T16:51:30.708Z,33.30
2018-08-28T16:54:00.037Z,32.70
2018-08-28T16:56:29.294Z,31.70
2018-08-28T16:58:58.084Z,31.30
2018-08-28T17:01:26.770Z,31.20
2018-08-28T17:03:56.000Z,31.00
2018-08-28T17:06:24.700Z,31.10
2018-08-28T17:08:53.322Z,31.00
2018-08-28T17:11:22.696Z,30.60
2018-08-28T17:13:51.865Z,29.70
2018-08-28T17:16:21.067Z,29.10
2018-08-28T17:18:49.950Z,28.60
2018-08-28T17:21:18.575Z,27.80
2018-08-28T17:23:47.768Z,27.10
2018-08-28T17:26:17.031Z,26.50
2018-08-28T17:28:45.908Z,26.00
2018-08-28T17:31:14.563Z,25.80
2018-08-28T17:33:43.617Z,25.50
2018-08-28T17:36:12.497Z,25.00
2018-08-28T17:38:41.768Z,24.60
2018-08-28T17:41:10.551Z,24.50
2018-08-28T17:43:39.248Z,24.30
2018-08-28T17:46:07.998Z,24.10
2018-08-28T17:48:36.540Z,23.70
2018-08-28T17:51:05.522Z,23.50
2018-08-28T17:53:34.227Z,23.30
2018-08-28T17:56:03.681Z,23.00
2018-08-28T17:58:32.812Z,22.60
2018-08-28T18:01:02.122Z,22.30
2018-08-28T18:03:31.524Z,21.90
2018-08-28T18:06:00.400Z,21.60
2018-08-28T18:08:29.797Z,21.20
2018-08-28T18:10:58.595Z,21.00
2018-08-28T18:13:27.392Z,20.70
2018-08-28T18:15:56.731Z,20.40
2018-08-28T18:18:25.607Z,20.20
2018-08-28T18:20:55.061Z,19.90
2018-08-28T18:23:24.224Z,19.70
2018-08-28T18:25:53.507Z,19.50
2018-08-28T18:28:22.175Z,19.30
2018-08-28T18:30:50.751Z,19.10
2018-08-28T18:33:19.847Z,19.00
2018-08-28T18:35:49.239Z,18.80
2018-08-28T18:38:18.510Z,18.60
2018-08-28T18:40:47.925Z,18.40
2018-08-28T18:43:17.235Z,18.20
2018-08-28T18:45:45.862Z,18.10
2018-08-28T18:48:14.492Z,17.90
2018-08-28T18:50:43.732Z,17.80
2018-08-28T18:53:12.468Z,17.70
2018-08-28T18:55:41.068Z,17.60
2018-08-28T18:58:09.669Z,17.40
2018-08-28T19:00:38.213Z,17.30
2018-08-28T19:03:08.415Z,17.10
2018-08-28T19:05:37.041Z,17.00
2018-08-28T19:08:06.467Z,16.90
2018-08-28T19:10:35.117Z,16.80
2018-08-28T19:13:04.551Z,16.70
2018-08-28T19:15:33.318Z,16.50
2018-08-28T19:18:02.189Z,16.40
2018-08-28T19:20:31.143Z,16.40
2018-08-28T19:22:59.907Z,16.30
2018-08-28T19:25:28.835Z,16.20
2018-08-28T19:27:58.318Z,16.00
2018-08-28T19:30:27.413Z,16.00
2018-08-28T19:32:56.494Z,15.90
2018-08-28T19:35:25.687Z,15.80
2018-08-28T19:37:54.911Z,15.80
2018-08-28T19:40:24.202Z,15.80
2018-08-28T19:42:53.043Z,15.70
2018-08-28T19:45:22.587Z,15.60
2018-08-28T19:47:51.560Z,15.50
2018-08-28T19:50:20.124Z,15.40
2018-08-28T19:52:49.029Z,15.30
2018-08-28T19:55:18.449Z,15.20
2018-08-28T19:57:47.800Z,15.20
2018-08-28T20:00:17.175Z,15.10
2018-08-28T20:02:46.278Z,14.90
2018-08-28T20:05:15.703Z,14.90
2018-08-28T20:07:44.331Z,14.80
2018-08-28T20:10:12.878Z,14.70
2018-08-28T20:12:42.407Z,14.70
2018-08-28T20:15:11.402Z,14.70
2018-08-28T20:17:40.798Z,14.50
2018-08-28T20:20:09.816Z,14.50
2018-08-28T20:22:38.696Z,14.40
2018-08-28T20:25:07.537Z,14.40
2018-08-28T20:27:36.137Z,14.30
2018-08-28T20:30:04.823Z,14.30
2018-08-28T20:32:33.633Z,14.20
2018-08-28T20:35:02.396Z,14.10
2018-08-28T20:37:32.441Z,14.20
2018-08-28T20:40:01.084Z,14.10
2018-08-28T20:42:29.933Z,14.00
2018-08-28T20:44:59.330Z,14.00
2018-08-28T20:47:28.396Z,13.90
2018-08-28T20:49:57.700Z,13.90
2018-08-28T20:52:26.305Z,13.80
2018-08-28T20:54:54.891Z,13.90
2018-08-28T20:57:24.044Z,13.70
2018-08-28T20:59:53.012Z,13.60
2018-08-28T21:02:21.752Z,13.60
2018-08-28T21:04:50.503Z,13.50
2018-08-28T21:07:19.506Z,13.60
2018-08-28T21:09:48.409Z,13.50
2018-08-28T21:12:17.533Z,13.50
2018-08-28T21:14:46.874Z,13.40
2018-08-28T21:17:16.232Z,13.30
2018-08-28T21:19:45.333Z,13.30
2018-08-28T21:22:14.288Z,13.20
2018-08-28T21:24:43.533Z,13.20
2018-08-28T21:27:12.319Z,13.10
2018-08-28T21:29:40.834Z,13.10
2018-08-28T21:32:09.492Z,13.00
2018-08-28T21:34:38.058Z,12.90
2018-08-28T21:37:07.003Z,12.80
2018-08-28T21:39:35.751Z,12.80
2018-08-28T21:42:05.497Z,12.80
2018-08-28T21:44:34.704Z,12.70
2018-08-28T21:47:03.771Z,12.60
2018-08-28T21:49:32.265Z,12.60
2018-08-28T21:52:00.971Z,12.60
2018-08-28T21:54:29.617Z,12.50
2018-08-28T21:56:58.823Z,12.50
2018-08-28T21:59:27.646Z,12.40
2018-08-28T22:01:56.224Z,12.40
2018-08-28T22:04:25.699Z,12.30
2018-08-28T22:06:59.623Z,12.30
2018-08-28T22:09:28.166Z,12.30
2018-08-28T22:11:57.052Z,12.20
2018-08-28T22:14:26.533Z,12.20
2018-08-28T22:16:55.164Z,12.10
2018-08-28T22:19:23.992Z,12.10
2018-08-28T22:21:53.016Z,12.00
2018-08-28T22:24:21.818Z,12.00
2018-08-28T22:26:50.421Z,11.90
2018-08-28T22:29:19.642Z,11.80
2018-08-28T22:31:48.147Z,11.80
2018-08-28T22:34:17.347Z,11.80
2018-08-28T22:36:45.969Z,11.80
2018-08-28T22:39:15.618Z,11.80
2018-08-28T22:41:44.233Z,11.70
2018-08-28T22:44:12.955Z,11.80
2018-08-28T22:46:42.227Z,11.70
2018-08-28T22:49:10.801Z,11.70
2018-08-28T22:51:39.440Z,11.70
2018-08-28T22:54:09.039Z,11.60
2018-08-28T22:56:38.220Z,11.50
2018-08-28T22:59:07.576Z,11.50
2018-08-28T23:01:36.263Z,11.40
2018-08-28T23:04:04.905Z,11.40
2018-08-28T23:06:34.222Z,11.50
2018-08-28T23:09:03.102Z,11.40
2018-08-28T23:11:31.617Z,11.30
2018-08-28T23:14:00.908Z,11.30
2018-08-28T23:16:29.711Z,11.30
2018-08-28T23:18:58.249Z,11.30
2018-08-28T23:21:26.894Z,11.30
2018-08-28T23:23:55.376Z,11.20
2018-08-28T23:26:23.972Z,11.20
2018-08-28T23:28:53.213Z,11.10
2018-08-28T23:31:21.753Z,11.10
2018-08-28T23:33:50.243Z,11.10
2018-08-28T23:36:18.806Z,11.10
2018-08-28T23:38:47.395Z,11.00
2018-08-28T23:41:16.500Z,11.00
2018-08-28T23:43:45.860Z,11.00
2018-08-28T23:46:14.327Z,11.00
2018-08-28T23:48:42.931Z,10.90
2018-08-28T23:51:11.384Z,10.80
2018-08-28T23:53:40.136Z,10.80
2018-08-28T23:56:08.754Z,10.80
2018-08-28T23:58:37.826Z,10.70
